Terminal Aerodrome Forecast
Issued by NWS Louisville, KY

Home | Current Version | Previous Version | Text Only | Print | Product List | Glossary On
Versions: 1 2 3 4 5 6 7 8 9 10 11 12 13 14 15 16 17
000
FTUS43 KLMK 011400 AAC
TAFLEX
TAF AMD
KLEX 011402Z 0114/0212 VRB03KT 1/2SM FG BKN002
      TEMPO 0114/0115 1SM BR BKN004
     FM011500 VRB03KT 1SM BR BKN004
      TEMPO 0115/0116 3SM BR BKN006
     FM011600 VRB04KT 6SM BR SCT012
     FM011800 VRB04KT P6SM SCT030=

USA.gov is the U.S. government's official web portal to all federal, state and local government web resources and services.